sensor_id;sensor_type;location;lat;lon;timestamp;pressure;altitude;pressure_sealevel;temperature;humidity
3444;BME280;1736;52.068;6.968;2023-02-28T00:00:10;102597.53;;;-0.84;93.03
3444;BME280;1736;52.068;6.968;2023-02-28T00:02:37;102597.50;;;-0.81;92.60
3444;BME280;1736;52.068;6.968;2023-02-28T00:05:04;102607.03;;;-0.78;92.78
3444;BME280;1736;52.068;6.968;2023-02-28T00:07:32;102604.41;;;-0.74;92.95
3444;BME280;1736;52.068;6.968;2023-02-28T00:09:58;102619.16;;;-0.65;92.78
3444;BME280;1736;52.068;6.968;2023-02-28T00:12:27;102611.28;;;-0.64;92.34
3444;BME280;1736;52.068;6.968;2023-02-28T00:14:53;102603.44;;;-0.62;92.36
3444;BME280;1736;52.068;6.968;2023-02-28T00:17:20;102613.84;;;-0.56;92.80
3444;BME280;1736;52.068;6.968;2023-02-28T00:19:47;102610.34;;;-0.52;92.73
3444;BME280;1736;52.068;6.968;2023-02-28T00:22:15;102605.94;;;-0.46;92.23
3444;BME280;1736;52.068;6.968;2023-02-28T00:24:42;102609.38;;;-0.44;92.04
3444;BME280;1736;52.068;6.968;2023-02-28T00:27:09;102602.41;;;-0.39;91.84
3444;BME280;1736;52.068;6.968;2023-02-28T00:29:37;102603.25;;;-0.38;91.83
3444;BME280;1736;52.068;6.968;2023-02-28T00:32:04;102599.75;;;-0.37;91.73
3444;BME280;1736;52.068;6.968;2023-02-28T00:34:32;102604.94;;;-0.33;91.72
3444;BME280;1736;52.068;6.968;2023-02-28T00:37:04;102607.53;;;-0.28;91.37
3444;BME280;1736;52.068;6.968;2023-02-28T00:39:31;102601.41;;;-0.24;91.28
3444;BME280;1736;52.068;6.968;2023-02-28T00:41:59;102601.34;;;-0.20;91.50
3444;BME280;1736;52.068;6.968;2023-02-28T00:44:26;102607.44;;;-0.21;90.67
3444;BME280;1736;52.068;6.968;2023-02-28T00:46:53;102608.28;;;-0.17;90.96
3444;BME280;1736;52.068;6.968;2023-02-28T00:49:22;102603.91;;;-0.14;90.18
3444;BME280;1736;52.068;6.968;2023-02-28T00:51:48;102602.13;;;-0.12;90.28
3444;BME280;1736;52.068;6.968;2023-02-28T00:54:17;102603.00;;;-0.08;90.21
3444;BME280;1736;52.068;6.968;2023-02-28T00:56:44;102611.66;;;-0.05;89.99
3444;BME280;1736;52.068;6.968;2023-02-28T00:59:12;102614.22;;;-0.02;89.74
3444;BME280;1736;52.068;6.968;2023-02-28T01:01:38;102612.47;;;0.00;89.71
3444;BME280;1736;52.068;6.968;2023-02-28T01:04:06;102608.97;;;0.01;89.58
3444;BME280;1736;52.068;6.968;2023-02-28T01:06:33;102615.94;;;0.03;89.57
3444;BME280;1736;52.068;6.968;2023-02-28T01:09:01;102611.56;;;0.03;89.66
3444;BME280;1736;52.068;6.968;2023-02-28T01:11:28;102607.13;;;0.11;89.49
3444;BME280;1736;52.068;6.968;2023-02-28T01:13:55;102612.34;;;0.13;88.70
3444;BME280;1736;52.068;6.968;2023-02-28T01:16:22;102619.28;;;0.13;89.04
3444;BME280;1736;52.068;6.968;2023-02-28T01:18:48;102604.50;;;0.13;89.04
3444;BME280;1736;52.068;6.968;2023-02-28T01:21:18;102605.38;;;0.12;89.35
3444;BME280;1736;52.068;6.968;2023-02-28T01:23:46;102603.59;;;0.15;89.58
3444;BME280;1736;52.068;6.968;2023-02-28T01:26:14;102608.84;;;0.13;89.63
3444;BME280;1736;52.068;6.968;2023-02-28T01:28:42;102603.59;;;0.15;89.54
3444;BME280;1736;52.068;6.968;2023-02-28T01:31:09;102607.06;;;0.19;89.07
3444;BME280;1736;52.068;6.968;2023-02-28T01:33:37;102601.88;;;0.16;88.81
3444;BME280;1736;52.068;6.968;2023-02-28T01:36:06;102610.53;;;0.17;89.16
3444;BME280;1736;52.068;6.968;2023-02-28T01:38:34;102610.50;;;0.21;88.56
3444;BME280;1736;52.068;6.968;2023-02-28T01:41:01;102609.63;;;0.22;88.88
3444;BME280;1736;52.068;6.968;2023-02-28T01:43:30;102601.78;;;0.22;89.17
3444;BME280;1736;52.068;6.968;2023-02-28T01:45:58;102604.38;;;0.23;89.30
3444;BME280;1736;52.068;6.968;2023-02-28T01:48:26;102607.00;;;0.22;89.72
3444;BME280;1736;52.068;6.968;2023-02-28T01:50:55;102599.13;;;0.28;89.93
3444;BME280;1736;52.068;6.968;2023-02-28T01:53:29;102595.63;;;0.29;89.80
3444;BME280;1736;52.068;6.968;2023-02-28T01:56:00;102594.72;;;0.30;90.06
3444;BME280;1736;52.068;6.968;2023-02-28T01:58:30;102588.72;;;0.23;90.07
3444;BME280;1736;52.068;6.968;2023-02-28T02:00:57;102592.91;;;0.35;89.38
3444;BME280;1736;52.068;6.968;2023-02-28T02:03:24;102599.94;;;0.30;88.23
3444;BME280;1736;52.068;6.968;2023-02-28T02:05:51;102590.38;;;0.32;88.49
3444;BME280;1736;52.068;6.968;2023-02-28T02:08:19;102593.03;;;0.27;88.76
3444;BME280;1736;52.068;6.968;2023-02-28T02:10:48;102592.19;;;0.24;89.03
3444;BME280;1736;52.068;6.968;2023-02-28T02:13:29;102592.19;;;0.25;89.05
3444;BME280;1736;52.068;6.968;2023-02-28T02:16:04;102579.97;;;0.26;89.07
3444;BME280;1736;52.068;6.968;2023-02-28T02:18:38;102587.78;;;0.29;89.37
3444;BME280;1736;52.068;6.968;2023-02-28T02:21:45;102579.13;;;0.27;89.09
3444;BME280;1736;52.068;6.968;2023-02-28T02:24:38;102589.59;;;0.24;89.12
3444;BME280;1736;52.068;6.968;2023-02-28T02:27:23;102573.94;;;0.22;89.08
3444;BME280;1736;52.068;6.968;2023-02-28T02:33:20;102573.94;;;0.21;89.29
3444;BME280;1736;52.068;6.968;2023-02-28T02:35:54;102577.44;;;0.23;88.12
3444;BME280;1736;52.068;6.968;2023-02-28T02:38:31;102586.09;;;0.25;88.22
3444;BME280;1736;52.068;6.968;2023-02-28T02:41:04;102577.31;;;0.32;87.24
3444;BME280;1736;52.068;6.968;2023-02-28T02:43:36;102571.31;;;0.25;87.23
3444;BME280;1736;52.068;6.968;2023-02-28T02:46:10;102580.75;;;0.34;87.14
3444;BME280;1736;52.068;6.968;2023-02-28T02:48:40;102587.81;;;0.26;87.70
3444;BME280;1736;52.068;6.968;2023-02-28T02:51:12;102564.31;;;0.26;88.47
3444;BME280;1736;52.068;6.968;2023-02-28T02:53:42;102574.88;;;0.15;89.83
3444;BME280;1736;52.068;6.968;2023-02-28T02:56:12;102572.28;;;0.13;90.47
3444;BME280;1736;52.068;6.968;2023-02-28T02:58:42;102579.28;;;0.10;90.85
3444;BME280;1736;52.068;6.968;2023-02-28T03:01:13;102573.28;;;0.03;91.50
3444;BME280;1736;52.068;6.968;2023-02-28T03:03:41;102565.47;;;0.00;91.67
3444;BME280;1736;52.068;6.968;2023-02-28T03:06:08;102576.78;;;0.01;92.01
3444;BME280;1736;52.068;6.968;2023-02-28T03:08:37;102572.47;;;-0.02;92.36
3444;BME280;1736;52.068;6.968;2023-02-28T03:11:06;102572.53;;;-0.09;92.72
3444;BME280;1736;52.068;6.968;2023-02-28T03:14:04;102565.56;;;-0.06;93.15
3444;BME280;1736;52.068;6.968;2023-02-28T03:16:45;102580.34;;;-0.08;93.41
3444;BME280;1736;52.068;6.968;2023-02-28T03:19:34;102568.19;;;-0.07;93.13
3444;BME280;1736;52.068;6.968;2023-02-28T03:25:15;102571.69;;;-0.11;93.26
3444;BME280;1736;52.068;6.968;2023-02-28T03:27:48;102572.53;;;-0.08;93.38
3444;BME280;1736;52.068;6.968;2023-02-28T03:30:24;102564.69;;;-0.08;93.24
3444;BME280;1736;52.068;6.968;2023-02-28T03:32:55;102575.13;;;-0.08;93.75
3444;BME280;1736;52.068;6.968;2023-02-28T03:35:25;102574.22;;;-0.02;93.86
3444;BME280;1736;52.068;6.968;2023-02-28T03:38:00;102573.38;;;-0.04;93.88
3444;BME280;1736;52.068;6.968;2023-02-28T03:40:31;102565.50;;;-0.03;93.73
3444;BME280;1736;52.068;6.968;2023-02-28T03:43:02;102567.28;;;-0.05;93.56
3444;BME280;1736;52.068;6.968;2023-02-28T03:45:33;102572.50;;;-0.05;93.75
3444;BME280;1736;52.068;6.968;2023-02-28T03:48:06;102569.88;;;-0.05;93.76
3444;BME280;1736;52.068;6.968;2023-02-28T03:50:37;102570.78;;;-0.04;93.73
3444;BME280;1736;52.068;6.968;2023-02-28T03:53:09;102569.00;;;-0.05;93.43
3444;BME280;1736;52.068;6.968;2023-02-28T03:55:42;102571.63;;;-0.05;92.89
3444;BME280;1736;52.068;6.968;2023-02-28T03:58:15;102577.63;;;0.01;91.70
3444;BME280;1736;52.068;6.968;2023-02-28T04:00:46;102575.88;;;0.03;91.84
3444;BME280;1736;52.068;6.968;2023-02-28T04:03:15;102572.41;;;0.04;91.38
3444;BME280;1736;52.068;6.968;2023-02-28T04:05:50;102572.41;;;0.04;91.27
3444;BME280;1736;52.068;6.968;2023-02-28T04:08:17;102576.72;;;0.07;91.59
3444;BME280;1736;52.068;6.968;2023-02-28T04:10:50;102582.78;;;0.11;91.42
3444;BME280;1736;52.068;6.968;2023-02-28T04:13:19;102581.00;;;0.13;91.66
3444;BME280;1736;52.068;6.968;2023-02-28T04:15:46;102587.91;;;0.17;91.35
3444;BME280;1736;52.068;6.968;2023-02-28T04:18:12;102568.81;;;0.15;91.25
3444;BME280;1736;52.068;6.968;2023-02-28T04:20:39;102582.69;;;0.17;91.00
3444;BME280;1736;52.068;6.968;2023-02-28T04:23:05;102589.66;;;0.17;90.85
3444;BME280;1736;52.068;6.968;2023-02-28T04:25:32;102593.97;;;0.20;90.42
3444;BME280;1736;52.068;6.968;2023-02-28T04:27:59;102586.19;;;0.16;89.58
3444;BME280;1736;52.068;6.968;2023-02-28T04:30:26;102581.91;;;0.10;89.50
3444;BME280;1736;52.068;6.968;2023-02-28T04:32:52;102587.13;;;0.10;89.46
3444;BME280;1736;52.068;6.968;2023-02-28T04:35:19;102579.31;;;0.07;89.66
3444;BME280;1736;52.068;6.968;2023-02-28T04:37:46;102583.72;;;0.05;89.74
3444;BME280;1736;52.068;6.968;2023-02-28T04:40:12;102586.34;;;0.00;89.96
3444;BME280;1736;52.068;6.968;2023-02-28T04:42:39;102584.66;;;-0.05;90.18
3444;BME280;1736;52.068;6.968;2023-02-28T04:45:08;102590.81;;;-0.09;90.26
3444;BME280;1736;52.068;6.968;2023-02-28T04:47:36;102592.59;;;-0.13;90.21
3444;BME280;1736;52.068;6.968;2023-02-28T04:50:03;102592.59;;;-0.16;90.18
3444;BME280;1736;52.068;6.968;2023-02-28T04:52:29;102593.50;;;-0.17;90.64
3444;BME280;1736;52.068;6.968;2023-02-28T04:54:56;102592.59;;;-0.16;90.73
3444;BME280;1736;52.068;6.968;2023-02-28T04:57:22;102597.03;;;-0.22;90.91
3444;BME280;1736;52.068;6.968;2023-02-28T04:59:49;102592.72;;;-0.28;91.31
3444;BME280;1736;52.068;6.968;2023-02-28T05:02:17;102600.63;;;-0.35;91.13
3444;BME280;1736;52.068;6.968;2023-02-28T05:04:43;102590.22;;;-0.38;91.64
3444;BME280;1736;52.068;6.968;2023-02-28T05:07:10;102592.03;;;-0.49;92.00
3444;BME280;1736;52.068;6.968;2023-02-28T05:09:36;102591.25;;;-0.57;92.61
3444;BME280;1736;52.068;6.968;2023-02-28T05:12:03;102583.56;;;-0.71;92.86
3444;BME280;1736;52.068;6.968;2023-02-28T05:14:29;102594.03;;;-0.80;93.65
3444;BME280;1736;52.068;6.968;2023-02-28T05:16:56;102596.69;;;-0.87;94.25
3444;BME280;1736;52.068;6.968;2023-02-28T05:19:24;102593.25;;;-0.92;94.47
3444;BME280;1736;52.068;6.968;2023-02-28T05:21:52;102597.66;;;-1.05;94.44
3444;BME280;1736;52.068;6.968;2023-02-28T05:24:19;102594.28;;;-1.19;94.27
3444;BME280;1736;52.068;6.968;2023-02-28T05:26:48;102597.81;;;-1.29;94.76
3444;BME280;1736;52.068;6.968;2023-02-28T05:29:15;102600.47;;;-1.38;95.36
3444;BME280;1736;52.068;6.968;2023-02-28T05:31:41;102597.91;;;-1.42;95.85
3444;BME280;1736;52.068;6.968;2023-02-28T05:34:08;102605.72;;;-1.47;96.22
3444;BME280;1736;52.068;6.968;2023-02-28T05:36:38;102600.50;;;-1.53;96.86
3444;BME280;1736;52.068;6.968;2023-02-28T05:39:05;102611.81;;;-1.54;96.88
3444;BME280;1736;52.068;6.968;2023-02-28T05:41:32;102604.88;;;-1.58;96.70
3444;BME280;1736;52.068;6.968;2023-02-28T05:43:59;102617.06;;;-1.66;96.76
3444;BME280;1736;52.068;6.968;2023-02-28T05:46:26;102615.38;;;-1.74;97.02
3444;BME280;1736;52.068;6.968;2023-02-28T05:48:53;102615.38;;;-1.82;96.70
3444;BME280;1736;52.068;6.968;2023-02-28T05:51:20;102622.34;;;-1.87;97.32
3444;BME280;1736;52.068;6.968;2023-02-28T05:53:48;102626.69;;;-1.90;97.48
3444;BME280;1736;52.068;6.968;2023-02-28T05:56:15;102623.19;;;-1.94;98.17
3444;BME280;1736;52.068;6.968;2023-02-28T05:58:41;102620.63;;;-1.97;98.92
3444;BME280;1736;52.068;6.968;2023-02-28T06:01:23;102618.91;;;-2.02;98.82
3444;BME280;1736;52.068;6.968;2023-02-28T06:03:50;102624.09;;;-2.07;98.69
3444;BME280;1736;52.068;6.968;2023-02-28T06:06:17;102629.31;;;-2.10;98.76
3444;BME280;1736;52.068;6.968;2023-02-28T06:08:43;102624.09;;;-2.10;99.29
3444;BME280;1736;52.068;6.968;2023-02-28T06:11:12;102627.56;;;-2.14;99.41
3444;BME280;1736;52.068;6.968;2023-02-28T06:13:38;102631.06;;;-2.15;100.00
3444;BME280;1736;52.068;6.968;2023-02-28T06:16:05;102634.53;;;-2.13;100.00
3444;BME280;1736;52.068;6.968;2023-02-28T06:18:32;102637.09;;;-2.10;100.00
3444;BME280;1736;52.068;6.968;2023-02-28T06:20:58;102636.25;;;-2.03;100.00
3444;BME280;1736;52.068;6.968;2023-02-28T06:23:25;102637.13;;;-1.99;99.94
3444;BME280;1736;52.068;6.968;2023-02-28T06:25:51;102636.22;;;-1.91;100.00
3444;BME280;1736;52.068;6.968;2023-02-28T06:28:20;102641.41;;;-1.89;99.60
3444;BME280;1736;52.068;6.968;2023-02-28T06:30:46;102641.41;;;-1.91;99.10
3444;BME280;1736;52.068;6.968;2023-02-28T06:33:13;102641.41;;;-1.91;99.46
3444;BME280;1736;52.068;6.968;2023-02-28T06:35:39;102638.81;;;-1.94;99.51
3444;BME280;1736;52.068;6.968;2023-02-28T06:38:06;102640.56;;;-1.96;99.52
3444;BME280;1736;52.068;6.968;2023-02-28T06:40:32;102646.66;;;-1.97;99.87
3444;BME280;1736;52.068;6.968;2023-02-28T06:42:59;102642.31;;;-2.01;100.00
3444;BME280;1736;52.068;6.968;2023-02-28T06:45:27;102647.53;;;-1.99;100.00
3444;BME280;1736;52.068;6.968;2023-02-28T06:47:53;102644.91;;;-2.04;100.00
3444;BME280;1736;52.068;6.968;2023-02-28T06:50:20;102648.38;;;-2.08;100.00
3444;BME280;1736;52.068;6.968;2023-02-28T06:52:47;102652.75;;;-2.13;100.00
3444;BME280;1736;52.068;6.968;2023-02-28T06:55:13;102650.97;;;-2.14;100.00
3444;BME280;1736;52.068;6.968;2023-02-28T06:57:40;102645.78;;;-2.14;100.00
3444;BME280;1736;52.068;6.968;2023-02-28T07:00:08;102646.66;;;-2.15;100.00
3444;BME280;1736;52.068;6.968;2023-02-28T07:02:36;102650.13;;;-2.13;100.00
3444;BME280;1736;52.068;6.968;2023-02-28T07:05:04;102649.25;;;-2.10;100.00
3444;BME280;1736;52.068;6.968;2023-02-28T07:07:30;102653.59;;;-2.11;100.00
3444;BME280;1736;52.068;6.968;2023-02-28T07:09:57;102658.78;;;-2.08;100.00
3444;BME280;1736;52.068;6.968;2023-02-28T07:12:24;102662.25;;;-2.04;100.00
3444;BME280;1736;52.068;6.968;2023-02-28T07:14:50;102660.53;;;-2.02;100.00
3444;BME280;1736;52.068;6.968;2023-02-28T07:17:17;102661.38;;;-1.96;100.00
3444;BME280;1736;52.068;6.968;2023-02-28T07:19:45;102663.97;;;-1.87;100.00
3444;BME280;1736;52.068;6.968;2023-02-28T07:22:11;102657.00;;;-1.76;100.00
3444;BME280;1736;52.068;6.968;2023-02-28T07:24:38;102659.59;;;-1.62;100.00
3444;BME280;1736;52.068;6.968;2023-02-28T07:27:05;102665.59;;;-1.50;100.00
3444;BME280;1736;52.068;6.968;2023-02-28T07:29:32;102662.97;;;-1.35;100.00
3444;BME280;1736;52.068;6.968;2023-02-28T07:31:58;102666.41;;;-1.24;99.48
3444;BME280;1736;52.068;6.968;2023-02-28T07:34:25;102664.59;;;-1.14;98.32
3444;BME280;1736;52.068;6.968;2023-02-28T07:36:54;102662.81;;;-1.03;97.05
3444;BME280;1736;52.068;6.968;2023-02-28T07:39:20;102667.06;;;-0.92;96.67
3444;BME280;1736;52.068;6.968;2023-02-28T07:41:47;102669.59;;;-0.78;95.99
3444;BME280;1736;52.068;6.968;2023-02-28T07:44:14;102673.03;;;-0.67;95.90
3444;BME280;1736;52.068;6.968;2023-02-28T07:46:40;102674.66;;;-0.51;95.13
3444;BME280;1736;52.068;6.968;2023-02-28T07:49:07;102675.38;;;-0.30;94.38
3444;BME280;1736;52.068;6.968;2023-02-28T07:51:34;102673.41;;;-0.04;91.30
3444;BME280;1736;52.068;6.968;2023-02-28T07:54:02;102669.66;;;0.25;89.55
3444;BME280;1736;52.068;6.968;2023-02-28T07:56:28;102676.34;;;0.50;86.80
3444;BME280;1736;52.068;6.968;2023-02-28T07:58:55;102677.00;;;0.68;85.23
3444;BME280;1736;52.068;6.968;2023-02-28T08:01:22;102681.09;;;0.90;83.05
3444;BME280;1736;52.068;6.968;2023-02-28T08:03:48;102678.38;;;0.98;79.99
3444;BME280;1736;52.068;6.968;2023-02-28T08:06:17;102680.94;;;1.01;77.66
3444;BME280;1736;52.068;6.968;2023-02-28T08:08:44;102678.31;;;1.02;77.44
3444;BME280;1736;52.068;6.968;2023-02-28T08:11:12;102684.25;;;1.12;75.39
3444;BME280;1736;52.068;6.968;2023-02-28T08:13:39;102680.72;;;1.16;75.62
3444;BME280;1736;52.068;6.968;2023-02-28T08:16:07;102677.19;;;1.20;75.34
3444;BME280;1736;52.068;6.968;2023-02-28T08:18:34;102681.44;;;1.27;73.55
3444;BME280;1736;52.068;6.968;2023-02-28T08:21:05;102685.72;;;1.34;72.77
3444;BME280;1736;52.068;6.968;2023-02-28T08:23:32;102676.91;;;1.41;72.23
3444;BME280;1736;52.068;6.968;2023-02-28T08:26:00;102675.06;;;1.46;71.38
3444;BME280;1736;52.068;6.968;2023-02-28T08:28:28;102680.09;;;1.59;70.27
3444;BME280;1736;52.068;6.968;2023-02-28T08:30:55;102682.63;;;1.64;68.81
3444;BME280;1736;52.068;6.968;2023-02-28T08:33:23;102688.66;;;1.69;65.90
3444;BME280;1736;52.068;6.968;2023-02-28T08:35:52;102700.72;;;1.79;66.86
3444;BME280;1736;52.068;6.968;2023-02-28T08:38:19;102690.06;;;1.91;65.27
3444;BME280;1736;52.068;6.968;2023-02-28T08:40:46;102687.91;;;2.14;64.04
3444;BME280;1736;52.068;6.968;2023-02-28T08:43:12;102690.69;;;2.03;62.54
3444;BME280;1736;52.068;6.968;2023-02-28T08:45:40;102687.06;;;2.12;62.77
3444;BME280;1736;52.068;6.968;2023-02-28T08:48:08;102685.94;;;2.25;63.18
3444;BME280;1736;52.068;6.968;2023-02-28T08:50:35;102683.16;;;2.34;62.33
3444;BME280;1736;52.068;6.968;2023-02-28T08:53:01;102689.03;;;2.46;61.86
3444;BME280;1736;52.068;6.968;2023-02-28T08:55:28;102690.75;;;2.49;60.74
3444;BME280;1736;52.068;6.968;2023-02-28T08:57:55;102687.94;;;2.58;59.07
3444;BME280;1736;52.068;6.968;2023-02-28T09:00:22;102691.38;;;2.61;58.06
3444;BME280;1736;52.068;6.968;2023-02-28T09:02:50;102685.97;;;2.69;56.65
3444;BME280;1736;52.068;6.968;2023-02-28T09:05:17;102686.84;;;2.71;57.27
3444;BME280;1736;52.068;6.968;2023-02-28T09:07:43;102684.72;;;2.88;53.93
3444;BME280;1736;52.068;6.968;2023-02-28T09:10:10;102683.84;;;2.87;53.50
3444;BME280;1736;52.068;6.968;2023-02-28T09:12:37;102690.09;;;2.82;52.74
3444;BME280;1736;52.068;6.968;2023-02-28T09:15:05;102682.25;;;2.80;51.72
3444;BME280;1736;52.068;6.968;2023-02-28T09:17:32;102683.06;;;2.84;50.80
3444;BME280;1736;52.068;6.968;2023-02-28T09:20:00;102685.63;;;2.87;50.67
3444;BME280;1736;52.068;6.968;2023-02-28T09:22:26;102681.19;;;2.90;50.73
3444;BME280;1736;52.068;6.968;2023-02-28T09:24:53;102676.72;;;2.94;51.05
3444;BME280;1736;52.068;6.968;2023-02-28T09:27:19;102682.72;;;2.99;50.96
3444;BME280;1736;52.068;6.968;2023-02-28T09:29:46;102680.25;;;2.93;50.29
3444;BME280;1736;52.068;6.968;2023-02-28T09:32:14;102685.25;;;3.03;50.44
3444;BME280;1736;52.068;6.968;2023-02-28T09:34:40;102678.13;;;3.10;48.41
3444;BME280;1736;52.068;6.968;2023-02-28T09:37:09;102672.81;;;3.13;48.14
3444;BME280;1736;52.068;6.968;2023-02-28T09:39:35;102678.25;;;3.05;48.68
3444;BME280;1736;52.068;6.968;2023-02-28T09:42:03;102677.47;;;2.99;48.32
3444;BME280;1736;52.068;6.968;2023-02-28T09:44:33;102679.00;;;3.10;49.23
3444;BME280;1736;52.068;6.968;2023-02-28T09:47:06;102675.44;;;3.13;49.16
3444;BME280;1736;52.068;6.968;2023-02-28T09:49:40;102672.84;;;3.11;49.15
3444;BME280;1736;52.068;6.968;2023-02-28T09:52:12;102677.22;;;3.11;50.23
3444;BME280;1736;52.068;6.968;2023-02-28T09:54:40;102678.72;;;3.24;49.30
3444;BME280;1736;52.068;6.968;2023-02-28T09:57:10;102673.25;;;3.33;48.14
3444;BME280;1736;52.068;6.968;2023-02-28T09:59:50;102678.63;;;3.27;46.13
3444;BME280;1736;52.068;6.968;2023-02-28T10:02:40;102670.56;;;3.36;46.36
3444;BME280;1736;52.068;6.968;2023-02-28T10:05:11;102663.31;;;3.45;45.89
3444;BME280;1736;52.068;6.968;2023-02-28T10:07:50;102663.25;;;3.48;44.99
3444;BME280;1736;52.068;6.968;2023-02-28T10:10:23;102668.47;;;3.50;44.39
3444;BME280;1736;52.068;6.968;2023-02-28T10:12:54;102667.66;;;3.48;44.98
3444;BME280;1736;52.068;6.968;2023-02-28T10:15:23;102665.84;;;3.50;45.64
3444;BME280;1736;52.068;6.968;2023-02-28T10:17:56;102666.78;;;3.47;44.58
3444;BME280;1736;52.068;6.968;2023-02-28T10:20:24;102674.84;;;3.40;45.20
3444;BME280;1736;52.068;6.968;2023-02-28T10:22:59;102667.00;;;3.38;46.28
3444;BME280;1736;52.068;6.968;2023-02-28T10:25:32;102672.94;;;3.46;46.77
3444;BME280;1736;52.068;6.968;2023-02-28T10:28:04;102673.56;;;3.56;46.95
3444;BME280;1736;52.068;6.968;2023-02-28T10:30:31;102672.41;;;3.69;47.30
3444;BME280;1736;52.068;6.968;2023-02-28T10:32:58;102675.91;;;3.68;47.00
3444;BME280;1736;52.068;6.968;2023-02-28T10:35:25;102677.47;;;3.75;46.62
3444;BME280;1736;52.068;6.968;2023-02-28T10:37:55;102672.09;;;3.81;44.80
3444;BME280;1736;52.068;6.968;2023-02-28T10:40:31;102669.56;;;3.76;44.68
3444;BME280;1736;52.068;6.968;2023-02-28T10:43:00;102667.00;;;3.73;43.82
3444;BME280;1736;52.068;6.968;2023-02-28T10:45:27;102654.69;;;3.77;43.73
3444;BME280;1736;52.068;6.968;2023-02-28T10:47:57;102660.38;;;3.94;44.05
3444;BME280;1736;52.068;6.968;2023-02-28T10:50:31;102668.19;;;3.97;44.67
3444;BME280;1736;52.068;6.968;2023-02-28T10:53:13;102660.44;;;3.91;42.87
3444;BME280;1736;52.068;6.968;2023-02-28T10:55:42;102664.78;;;3.92;43.10
3444;BME280;1736;52.068;6.968;2023-02-28T10:58:31;102664.09;;;3.85;42.65
3444;BME280;1736;52.068;6.968;2023-02-28T11:00:58;102660.72;;;3.80;43.23
3444;BME280;1736;52.068;6.968;2023-02-28T11:03:31;102662.38;;;3.84;42.82
3444;BME280;1736;52.068;6.968;2023-02-28T11:05:58;102663.28;;;3.83;43.22
3444;BME280;1736;52.068;6.968;2023-02-28T11:08:30;102656.16;;;3.87;43.73
3444;BME280;1736;52.068;6.968;2023-02-28T11:11:03;102648.16;;;3.93;44.10
3444;BME280;1736;52.068;6.968;2023-02-28T11:13:32;102654.06;;;4.01;43.28
3444;BME280;1736;52.068;6.968;2023-02-28T11:16:02;102654.16;;;3.98;43.15
3444;BME280;1736;52.068;6.968;2023-02-28T11:18:35;102654.22;;;3.95;43.99
3444;BME280;1736;52.068;6.968;2023-02-28T11:21:05;102660.88;;;4.08;43.45
3444;BME280;1736;52.068;6.968;2023-02-28T11:23:34;102666.38;;;3.99;43.27
3444;BME280;1736;52.068;6.968;2023-02-28T11:26:04;102645.44;;;3.96;43.53
3444;BME280;1736;52.068;6.968;2023-02-28T11:28:36;102647.06;;;4.00;42.82
3444;BME280;1736;52.068;6.968;2023-02-28T11:31:09;102648.97;;;3.95;43.71
3444;BME280;1736;52.068;6.968;2023-02-28T11:33:43;102654.88;;;4.03;43.32
3444;BME280;1736;52.068;6.968;2023-02-28T11:36:13;102646.06;;;4.05;42.49
3444;BME280;1736;52.068;6.968;2023-02-28T11:38:41;102637.19;;;4.09;43.95
3444;BME280;1736;52.068;6.968;2023-02-28T11:41:19;102631.94;;;4.09;43.18
3444;BME280;1736;52.068;6.968;2023-02-28T11:44:01;102647.38;;;4.21;42.94
3444;BME280;1736;52.068;6.968;2023-02-28T11:46:37;102637.91;;;4.16;42.67
3444;BME280;1736;52.068;6.968;2023-02-28T11:49:17;102634.28;;;4.20;44.40
3444;BME280;1736;52.068;6.968;2023-02-28T11:51:53;102634.47;;;4.14;43.76
3444;BME280;1736;52.068;6.968;2023-02-28T11:54:35;102631.00;;;4.12;44.10
3444;BME280;1736;52.068;6.968;2023-02-28T11:57:22;102639.38;;;4.26;43.90
3444;BME280;1736;52.068;6.968;2023-02-28T12:00:00;102630.84;;;4.18;43.21
3444;BME280;1736;52.068;6.968;2023-02-28T12:02:32;102627.38;;;4.16;42.96
3444;BME280;1736;52.068;6.968;2023-02-28T12:05:11;102629.75;;;4.25;44.22
3444;BME280;1736;52.068;6.968;2023-02-28T12:07:48;102611.28;;;4.28;44.05
3444;BME280;1736;52.068;6.968;2023-02-28T12:10:22;102627.09;;;4.26;43.52
3444;BME280;1736;52.068;6.968;2023-02-28T12:12:58;102608.00;;;4.20;43.25
3444;BME280;1736;52.068;6.968;2023-02-28T12:15:53;102605.06;;;4.30;43.45
3444;BME280;1736;52.068;6.968;2023-02-28T12:18:45;102600.81;;;4.26;44.25
3444;BME280;1736;52.068;6.968;2023-02-28T12:21:24;102598.88;;;4.33;43.38
3444;BME280;1736;52.068;6.968;2023-02-28T12:24:01;102605.00;;;4.33;42.43
3444;BME280;1736;52.068;6.968;2023-02-28T12:26:36;102600.06;;;4.21;43.42
3444;BME280;1736;52.068;6.968;2023-02-28T12:29:12;102584.81;;;4.35;43.99
3444;BME280;1736;52.068;6.968;2023-02-28T12:31:43;102594.56;;;4.61;43.03
3444;BME280;1736;52.068;6.968;2023-02-28T12:34:16;102591.63;;;4.41;42.47
3444;BME280;1736;52.068;6.968;2023-02-28T12:36:46;102591.09;;;4.30;42.22
3444;BME280;1736;52.068;6.968;2023-02-28T12:39:16;102572.78;;;4.27;43.32
3444;BME280;1736;52.068;6.968;2023-02-28T12:41:48;102575.19;;;4.34;42.30
3444;BME280;1736;52.068;6.968;2023-02-28T12:44:22;102568.88;;;4.40;43.50
3444;BME280;1736;52.068;6.968;2023-02-28T12:46:55;102565.09;;;4.50;43.28
3444;BME280;1736;52.068;6.968;2023-02-28T12:49:27;102564.19;;;4.51;43.62
3444;BME280;1736;52.068;6.968;2023-02-28T12:51:57;102563.19;;;4.55;42.90
3444;BME280;1736;52.068;6.968;2023-02-28T12:54:30;102550.78;;;4.60;42.05
3444;BME280;1736;52.068;6.968;2023-02-28T12:57:04;102568.56;;;4.50;42.48
3444;BME280;1736;52.068;6.968;2023-02-28T12:59:37;102553.75;;;4.48;43.22
3444;BME280;1736;52.068;6.968;2023-02-28T13:08:31;102541.97;;;4.61;43.77
3444;BME280;1736;52.068;6.968;2023-02-28T13:11:03;102538.63;;;4.56;43.17
3444;BME280;1736;52.068;6.968;2023-02-28T13:13:31;102540.94;;;4.66;42.48
3444;BME280;1736;52.068;6.968;2023-02-28T13:16:03;102537.97;;;4.48;42.33
3444;BME280;1736;52.068;6.968;2023-02-28T13:18:34;102538.81;;;4.50;42.88
3444;BME280;1736;52.068;6.968;2023-02-28T13:21:03;102535.03;;;4.58;43.79
3444;BME280;1736;52.068;6.968;2023-02-28T13:23:38;102529.84;;;4.55;43.51
3444;BME280;1736;52.068;6.968;2023-02-28T13:26:05;102533.44;;;4.53;43.26
3444;BME280;1736;52.068;6.968;2023-02-28T13:31:31;102528.81;;;4.61;42.45
3444;BME280;1736;52.068;6.968;2023-02-28T13:34:14;102531.28;;;4.67;44.28
3444;BME280;1736;52.068;6.968;2023-02-28T13:36:41;102540.34;;;4.57;44.68
3444;BME280;1736;52.068;6.968;2023-02-28T13:42:30;102534.63;;;4.72;42.81
3444;BME280;1736;52.068;6.968;2023-02-28T13:48:15;102526.69;;;4.73;43.05
3444;BME280;1736;52.068;6.968;2023-02-28T13:50:43;102521.38;;;4.75;43.27
3444;BME280;1736;52.068;6.968;2023-02-28T13:53:39;102527.56;;;4.74;43.99